Time;durP1;ratioP1;P1;durP2;ratioP2;P2;SDS_P1;SDS_P2;PMS_P1;PMS_P2;Temp;Humidity;BMP_temperature;BMP_pressure;BME280_temperature;BME280_humidity;BME280_pressure;Samples;Min_cycle;Max_cycle;Signal;HPM_P1;HPM_P2
2022/07/04 00:02:25;;;;;;;;;;;19.80;52.50;;;;;;5121202;28;19930;-46
2022/07/04 00:04:51;;;;;;;;;;;20.40;57.40;;;;;;5120824;28;20002;-47
2022/07/04 00:07:17;;;;;;;;;;;21.10;58.90;;;;;;5126260;27;20032;-46
2022/07/04 00:09:43;;;;;;;;;;;21.80;58.00;;;;;;5118940;28;20410;-52
2022/07/04 00:12:08;;;;;;;;;;;21.20;56.40;;;;;;5122983;28;20895;-56
2022/07/04 00:14:34;;;;;;;;;;;20.60;55.30;;;;;;5105289;28;20214;-48
2022/07/04 00:17:00;;;;;;;;;;;20.30;54.10;;;;;;5120658;28;20388;-50
2022/07/04 00:19:26;;;;;;;;;;;20.30;52.90;;;;;;5106397;28;19993;-47
2022/07/04 00:21:51;;;;;;;;;;;20.10;52.70;;;;;;5120821;28;19931;-46
2022/07/04 00:24:17;;;;;;;;;;;20.10;55.00;;;;;;5120525;27;19932;-47
2022/07/04 00:26:43;;;;;;;;;;;20.90;58.30;;;;;;5124855;27;19927;-46
2022/07/04 00:29:09;;;;;;;;;;;21.60;58.10;;;;;;5119366;28;19927;-47
2022/07/04 00:31:35;;;;;;;;;;;21.60;56.30;;;;;;5120724;28;19946;-54
2022/07/04 00:34:01;;;;;;;;;;;20.80;55.20;;;;;;5125678;28;19930;-48
2022/07/04 00:36:26;;;;;;;;;;;20.40;54.30;;;;;;5120522;28;20362;-45
2022/07/04 00:38:52;;;;;;;;;;;20.10;54.10;;;;;;5126131;28;19931;-45
2022/07/04 00:41:18;;;;;;;;;;;19.90;53.10;;;;;;5122493;27;19927;-45
2022/07/04 00:43:44;;;;;;;;;;;20.00;52.60;;;;;;5124093;27;20026;-46
2022/07/04 00:46:09;;;;;;;;;;;19.80;52.30;;;;;;5109483;27;19927;-51
2022/07/04 00:48:35;;;;;;;;;;;20.30;56.00;;;;;;5123410;27;19931;-46
2022/07/04 00:51:01;;;;;;;;;;;21.00;58.40;;;;;;5105119;27;20318;-46
2022/07/04 00:53:27;;;;;;;;;;;21.80;57.80;;;;;;5129214;27;19930;-45
2022/07/04 00:55:53;;;;;;;;;;;21.30;56.30;;;;;;5123968;27;20314;-47
2022/07/04 00:58:19;;;;;;;;;;;20.60;55.00;;;;;;5129872;27;19928;-45
2022/07/04 01:00:45;;;;;;;;;;;20.30;54.20;;;;;;5123765;27;20430;-45
2022/07/04 01:03:10;;;;;;;;;;;20.00;53.40;;;;;;5122879;27;19927;-45
2022/07/04 01:05:37;;;;;;;;;;;20.10;52.70;;;;;;5109499;27;19931;-47
2022/07/04 01:08:03;;;;;;;;;;;20.40;58.00;;;;;;5105134;27;19946;-48
2022/07/04 01:10:29;;;;;;;;;;;21.30;58.70;;;;;;5123875;27;20223;-47
2022/07/04 01:12:54;;;;;;;;;;;21.70;56.90;;;;;;5129115;27;19924;-45
2022/07/04 01:15:20;;;;;;;;;;;20.80;55.70;;;;;;5105264;27;19934;-45
2022/07/04 01:17:46;;;;;;;;;;;20.30;54.70;;;;;;5128980;27;19962;-44
2022/07/04 01:20:12;;;;;;;;;;;20.20;53.80;;;;;;5123449;27;19939;-46
2022/07/04 01:22:38;;;;;;;;;;;20.00;55.00;;;;;;5121531;27;19931;-51
2022/07/04 01:25:04;;;;;;;;;;;20.80;58.80;;;;;;5128006;27;19923;-45
2022/07/04 01:27:30;;;;;;;;;;;21.50;58.00;;;;;;5122918;27;20344;-47
2022/07/04 01:29:56;;;;;;;;;;;21.30;56.00;;;;;;5123291;27;19935;-46
2022/07/04 01:32:21;;;;;;;;;;;20.70;55.30;;;;;;5128565;27;19935;-47
2022/07/04 01:34:47;;;;;;;;;;;20.50;53.70;;;;;;5123216;27;20375;-46
2022/07/04 01:37:13;;;;;;;;;;;20.30;53.20;;;;;;5127776;27;20332;-54
2022/07/04 01:39:39;;;;;;;;;;;19.90;53.00;;;;;;5123241;27;19923;-46
2022/07/04 01:42:04;;;;;;;;;;;19.70;52.60;;;;;;5121545;27;19923;-50
2022/07/04 01:44:30;;;;;;;;;;;20.20;56.20;;;;;;5128189;27;19927;-46
2022/07/04 01:46:56;;;;;;;;;;;21.00;58.20;;;;;;5122875;27;19923;-48
2022/07/04 01:49:22;;;;;;;;;;;21.70;57.80;;;;;;5122776;27;19932;-48
2022/07/04 01:51:48;;;;;;;;;;;21.10;55.80;;;;;;5127428;27;19923;-46
2022/07/04 01:54:14;;;;;;;;;;;20.60;54.90;;;;;;5122677;27;20134;-46
2022/07/04 01:56:40;;;;;;;;;;;20.30;53.60;;;;;;5125411;27;19957;-56
2022/07/04 01:59:06;;;;;;;;;;;20.10;53.30;;;;;;5124487;27;19923;-45
2022/07/04 02:01:32;;;;;;;;;;;20.00;52.40;;;;;;5121872;27;20047;-47
2022/07/04 02:03:58;;;;;;;;;;;20.00;55.80;;;;;;5127922;27;19927;-46
2022/07/04 02:06:24;;;;;;;;;;;20.90;58.50;;;;;;5122715;27;19930;-45
2022/07/04 02:14:19;;;;;;;;;;;20.60;54.80;;;;;;5106937;27;19940;-46
2022/07/04 02:16:44;;;;;;;;;;;20.10;54.10;;;;;;5121410;27;19928;-49
2022/07/04 02:19:10;;;;;;;;;;;20.00;53.10;;;;;;5126283;27;19975;-45
2022/07/04 02:21:36;;;;;;;;;;;20.00;52.20;;;;;;5121633;27;19923;-45
2022/07/04 02:24:02;;;;;;;;;;;20.00;54.80;;;;;;5103954;27;20607;-51
2022/07/04 02:26:27;;;;;;;;;;;20.90;57.80;;;;;;5108419;27;19924;-46
2022/07/04 02:28:53;;;;;;;;;;;21.60;57.60;;;;;;5122305;27;20021;-49
2022/07/04 02:31:19;;;;;;;;;;;21.30;55.60;;;;;;5127645;27;19924;-45
2022/07/04 02:33:45;;;;;;;;;;;20.50;55.30;;;;;;5121879;27;19931;-49
2022/07/04 02:36:11;;;;;;;;;;;20.30;53.80;;;;;;5120109;27;20278;-51
2022/07/04 02:38:36;;;;;;;;;;;20.20;53.10;;;;;;5126711;27;20023;-45
2022/07/04 02:41:02;;;;;;;;;;;19.90;52.90;;;;;;5121421;27;20017;-45
2022/07/04 02:43:28;;;;;;;;;;;20.10;56.00;;;;;;5121885;27;19924;-47
2022/07/04 02:45:54;;;;;;;;;;;20.90;58.40;;;;;;5127475;27;19928;-46
2022/07/04 02:48:19;;;;;;;;;;;21.70;57.40;;;;;;5121758;27;20018;-45
2022/07/04 02:50:45;;;;;;;;;;;21.50;55.60;;;;;;5126760;27;19982;-51
2022/07/04 02:53:11;;;;;;;;;;;20.60;55.00;;;;;;5121556;27;19970;-47
2022/07/04 02:55:37;;;;;;;;;;;20.30;54.20;;;;;;5120239;27;20107;-45
2022/07/04 02:58:02;;;;;;;;;;;20.00;53.50;;;;;;5126947;27;19976;-47
2022/07/04 03:00:28;;;;;;;;;;;20.00;52.50;;;;;;5121619;27;19923;-47
2022/07/04 03:02:54;;;;;;;;;;;19.60;52.80;;;;;;5121270;27;19937;-46
2022/07/04 03:05:20;;;;;;;;;;;20.40;57.00;;;;;;5127074;27;20391;-51
2022/07/04 03:07:45;;;;;;;;;;;21.20;58.00;;;;;;5103385;27;19928;-45
2022/07/04 03:10:11;;;;;;;;;;;21.60;56.50;;;;;;5124813;27;19930;-55
2022/07/04 03:12:37;;;;;;;;;;;20.80;55.40;;;;;;5122448;27;20423;-49
2022/07/04 03:15:03;;;;;;;;;;;20.30;54.60;;;;;;5120281;27;19946;-45
2022/07/04 03:17:30;;;;;;;;;;;20.00;53.60;;;;;;5126694;27;19968;-47
2022/07/04 03:19:58;;;;;;;;;;;19.90;53.00;;;;;;5121093;27;19927;-48
2022/07/04 03:22:24;;;;;;;;;;;20.00;55.10;;;;;;5121390;27;19924;-47
2022/07/04 03:24:50;;;;;;;;;;;20.70;58.50;;;;;;5126624;27;19938;-44
2022/07/04 03:27:15;;;;;;;;;;;21.60;57.40;;;;;;5121000;27;19935;-50
2022/07/04 03:29:41;;;;;;;;;;;21.40;55.60;;;;;;5121009;28;19962;-48
2022/07/04 03:32:07;;;;;;;;;;;20.70;54.90;;;;;;5124768;28;19943;-48
2022/07/04 03:34:33;;;;;;;;;;;20.30;53.80;;;;;;5120579;28;19989;-45
2022/07/04 03:36:59;;;;;;;;;;;20.10;53.70;;;;;;5126520;28;19970;-49
2022/07/04 03:39:25;;;;;;;;;;;20.10;52.30;;;;;;5121075;28;19923;-46
2022/07/04 03:41:50;;;;;;;;;;;19.70;52.50;;;;;;5121078;28;19927;-46
2022/07/04 03:44:16;;;;;;;;;;;20.30;56.30;;;;;;5126650;28;19974;-49
2022/07/04 03:46:42;;;;;;;;;;;21.10;57.80;;;;;;5121099;28;20294;-45
2022/07/04 03:49:08;;;;;;;;;;;21.70;56.90;;;;;;5119512;27;20387;-49
2022/07/04 03:51:34;;;;;;;;;;;20.80;55.90;;;;;;5125275;27;19931;-47
2022/07/04 03:53:59;;;;;;;;;;;20.50;54.40;;;;;;5120548;28;19981;-43
2022/07/04 03:56:25;;;;;;;;;;;20.30;53.40;;;;;;5126461;28;20367;-45
2022/07/04 03:58:51;;;;;;;;;;;20.10;52.80;;;;;;5120911;28;19930;-46
2022/07/04 04:01:17;;;;;;;;;;;19.60;53.00;;;;;;5121040;27;19928;-51
2022/07/04 04:06:27;;;;;;;;;;;21.20;58.10;;;;;;5120136;28;19967;-45
2022/07/04 04:08:53;;;;;;;;;;;21.80;56.00;;;;;;5119314;27;20022;-45
2022/07/04 04:11:19;;;;;;;;;;;20.90;54.90;;;;;;5125722;27;19976;-49
2022/07/04 04:13:45;;;;;;;;;;;20.40;54.20;;;;;;5120939;27;19946;-48
2022/07/04 04:16:10;;;;;;;;;;;20.20;53.50;;;;;;5122478;27;19930;-47
2022/07/04 04:18:36;;;;;;;;;;;20.00;52.50;;;;;;5111906;27;19976;-46
2022/07/04 04:21:03;;;;;;;;;;;19.80;52.10;;;;;;5124990;27;19927;-48
2022/07/04 04:23:28;;;;;;;;;;;20.10;54.60;;;;;;5129747;27;19933;-47
2022/07/04 04:25:54;;;;;;;;;;;20.80;57.80;;;;;;5123247;27;20015;-50
2022/07/04 04:28:20;;;;;;;;;;;21.60;57.10;;;;;;5123459;27;19927;-45
2022/07/04 04:30:46;;;;;;;;;;;21.30;55.40;;;;;;5129661;27;20153;-44
2022/07/04 04:33:12;;;;;;;;;;;20.60;54.80;;;;;;5124217;27;19993;-47
2022/07/04 04:35:37;;;;;;;;;;;20.30;53.80;;;;;;5124624;27;20347;-46
2022/07/04 04:38:03;;;;;;;;;;;20.10;52.60;;;;;;5129940;27;19923;-47
2022/07/04 04:40:29;;;;;;;;;;;19.90;52.30;;;;;;5124223;27;19927;-50
2022/07/04 04:42:55;;;;;;;;;;;20.20;56.60;;;;;;5129504;27;20031;-48
2022/07/04 04:45:21;;;;;;;;;;;21.00;58.20;;;;;;5122240;27;20357;-50
2022/07/04 04:47:47;;;;;;;;;;;21.80;56.70;;;;;;5123962;27;19930;-50
2022/07/04 04:50:14;;;;;;;;;;;21.00;55.20;;;;;;5129514;27;20348;-48
2022/07/04 04:52:40;;;;;;;;;;;20.20;54.70;;;;;;5123807;27;19972;-45
2022/07/04 04:55:06;;;;;;;;;;;20.20;53.10;;;;;;5124115;27;19924;-47
2022/07/04 04:57:32;;;;;;;;;;;19.80;52.80;;;;;;5129648;27;19923;-47
2022/07/04 04:59:58;;;;;;;;;;;19.70;52.40;;;;;;5123899;27;19923;-47
2022/07/04 05:02:24;;;;;;;;;;;20.30;55.90;;;;;;5127690;27;20416;-57
2022/07/04 05:04:49;;;;;;;;;;;21.00;57.70;;;;;;5123969;27;19927;-45
2022/07/04 05:07:15;;;;;;;;;;;21.70;56.70;;;;;;5123280;27;19934;-48
2022/07/04 05:09:41;;;;;;;;;;;20.90;54.80;;;;;;5129085;27;19923;-48
2022/07/04 05:12:07;;;;;;;;;;;20.40;54.10;;;;;;5123517;27;20379;-48
2022/07/04 05:14:32;;;;;;;;;;;19.90;53.80;;;;;;5123457;27;19923;-45
2022/07/04 05:16:58;;;;;;;;;;;19.80;52.90;;;;;;5109721;27;20299;-51
2022/07/04 05:19:24;;;;;;;;;;;20.30;57.60;;;;;;5123615;27;19927;-47
2022/07/04 05:21:50;;;;;;;;;;;21.20;57.80;;;;;;5124084;27;19934;-55
2022/07/04 05:24:16;;;;;;;;;;;21.70;55.80;;;;;;5126255;27;20431;-48
2022/07/04 05:26:42;;;;;;;;;;;20.70;55.10;;;;;;5122795;27;19923;-46
2022/07/04 05:29:07;;;;;;;;;;;20.40;54.00;;;;;;5128840;27;19931;-46
2022/07/04 05:31:33;;;;;;;;;;;20.20;53.00;;;;;;5123186;27;19923;-50
2022/07/04 05:33:59;;;;;;;;;;;20.00;52.40;;;;;;5123287;27;20010;-46
2022/07/04 05:36:25;;;;;;;;;;;20.40;57.20;;;;;;5128658;27;19967;-44
2022/07/04 05:38:51;;;;;;;;;;;21.20;57.70;;;;;;5122027;27;19927;-46
2022/07/04 05:41:17;;;;;;;;;;;21.50;55.40;;;;;;5122032;27;19924;-54
2022/07/04 05:43:42;;;;;;;;;;;20.50;54.80;;;;;;5128033;27;19923;-46
2022/07/04 05:46:08;;;;;;;;;;;20.30;53.40;;;;;;5104647;27;19932;-46
2022/07/04 05:48:34;;;;;;;;;;;20.00;53.10;;;;;;5128511;27;19927;-49
2022/07/04 05:51:00;;;;;;;;;;;19.90;52.20;;;;;;5122722;27;19935;-48
2022/07/04 05:53:26;;;;;;;;;;;20.30;56.10;;;;;;5123101;27;19927;-46
2022/07/04 05:55:52;;;;;;;;;;;21.20;57.10;;;;;;5128423;27;19939;-47
2022/07/04 05:58:17;;;;;;;;;;;21.80;55.70;;;;;;5120905;27;20282;-50
2022/07/04 06:00:43;;;;;;;;;;;20.90;54.90;;;;;;5122099;27;19928;-47
2022/07/04 06:03:09;;;;;;;;;;;20.20;54.50;;;;;;5127873;27;19923;-43
2022/07/04 06:05:35;;;;;;;;;;;20.10;53.60;;;;;;5122406;27;19935;-46
2022/07/04 06:08:01;;;;;;;;;;;20.00;52.70;;;;;;5108392;27;20042;-46
2022/07/04 06:10:27;;;;;;;;;;;19.80;52.20;;;;;;5122575;27;20026;-46
2022/07/04 06:12:53;;;;;;;;;;;20.30;56.40;;;;;;5122389;27;19927;-47
2022/07/04 06:15:19;;;;;;;;;;;21.00;57.60;;;;;;5127316;27;20881;-46
2022/07/04 06:17:44;;;;;;;;;;;21.80;56.10;;;;;;5120831;27;20441;-50
2022/07/04 06:20:10;;;;;;;;;;;20.90;54.80;;;;;;5121919;27;20174;-47
2022/07/04 06:22:43;;;;;;;;;;;20.30;54.50;;;;;;5127665;27;20517;-44
2022/07/04 06:25:15;;;;;;;;;;;20.00;53.30;;;;;;5122385;27;19947;-45
2022/07/04 06:27:41;;;;;;;;;;;19.80;52.90;;;;;;5123739;27;19924;-54
2022/07/04 06:30:07;;;;;;;;;;;20.00;55.10;;;;;;5126792;27;19932;-46
2022/07/04 06:32:46;;;;;;;;;;;20.80;57.70;;;;;;5121706;27;19934;-46
2022/07/04 06:37:57;;;;;;;;;;;21.30;55.00;;;;;;5126312;27;20151;-46
2022/07/04 06:40:22;;;;;;;;;;;20.60;53.90;;;;;;5121846;27;19927;-47
2022/07/04 06:42:49;;;;;;;;;;;20.30;53.20;;;;;;5127313;27;19936;-48
2022/07/04 06:45:15;;;;;;;;;;;20.00;52.90;;;;;;5122059;27;19923;-47
2022/07/04 06:47:41;;;;;;;;;;;20.00;52.10;;;;;;5121914;27;19953;-45
2022/07/04 06:50:07;;;;;;;;;;;19.80;51.70;;;;;;5127397;27;20398;-47
2022/07/04 06:52:34;;;;;;;;;;;19.90;51.40;;;;;;5120617;27;19927;-48
2022/07/04 06:54:59;;;;;;;;;;;20.30;55.50;;;;;;5120394;27;20203;-47
2022/07/04 06:57:25;;;;;;;;;;;21.00;57.40;;;;;;5126491;27;19931;-47
2022/07/04 06:59:51;;;;;;;;;;;21.70;56.50;;;;;;5121545;27;19977;-47
2022/07/04 07:02:17;;;;;;;;;;;21.30;55.00;;;;;;5127154;27;19931;-50
2022/07/04 07:04:43;;;;;;;;;;;20.60;54.30;;;;;;5121545;27;19927;-46
2022/07/04 07:07:08;;;;;;;;;;;20.20;53.70;;;;;;5103283;27;19962;-46
2022/07/04 07:09:34;;;;;;;;;;;20.10;52.70;;;;;;5127070;27;19938;-47
2022/07/04 07:12:00;;;;;;;;;;;19.80;53.90;;;;;;5119393;27;19924;-48
2022/07/04 07:14:26;;;;;;;;;;;20.60;57.60;;;;;;5120693;27;19980;-47
2022/07/04 07:16:52;;;;;;;;;;;21.30;57.30;;;;;;5126763;27;19923;-47
2022/07/04 07:19:18;;;;;;;;;;;21.50;55.30;;;;;;5121136;27;20000;-46
2022/07/04 07:21:43;;;;;;;;;;;20.70;54.40;;;;;;5126550;27;19978;-54
2022/07/04 07:24:09;;;;;;;;;;;20.40;53.50;;;;;;5121856;27;20382;-46
2022/07/04 07:26:35;;;;;;;;;;;20.30;52.60;;;;;;5121274;27;19930;-48
2022/07/04 07:29:01;;;;;;;;;;;19.90;52.40;;;;;;5125934;28;20375;-47
2022/07/04 07:31:26;;;;;;;;;;;19.60;52.40;;;;;;5119738;27;20209;-49
2022/07/04 07:33:52;;;;;;;;;;;20.30;56.40;;;;;;5102504;28;20135;-47
2022/07/04 07:36:18;;;;;;;;;;;21.20;57.20;;;;;;5126357;28;19931;-46
2022/07/04 07:38:44;;;;;;;;;;;21.80;55.90;;;;;;5120857;28;19931;-46
2022/07/04 07:41:10;;;;;;;;;;;20.90;54.90;;;;;;5124515;28;19931;-52
2022/07/04 07:43:36;;;;;;;;;;;20.60;53.70;;;;;;5123621;28;20413;-46
2022/07/04 07:46:03;;;;;;;;;;;20.20;53.20;;;;;;5121300;27;19980;-47
2022/07/04 07:48:29;;;;;;;;;;;19.80;53.00;;;;;;5124794;28;20427;-55
2022/07/04 07:50:55;;;;;;;;;;;19.90;53.70;;;;;;5123640;27;19935;-46
2022/07/04 07:53:20;;;;;;;;;;;20.80;57.30;;;;;;5124913;27;19981;-45
2022/07/04 07:55:46;;;;;;;;;;;21.40;57.00;;;;;;5130254;27;20018;-45
2022/07/04 07:58:12;;;;;;;;;;;21.60;55.00;;;;;;5124975;27;19930;-46
2022/07/04 08:00:38;;;;;;;;;;;20.70;54.50;;;;;;5126022;27;19972;-51
2022/07/04 08:05:48;;;;;;;;;;;20.10;53.00;;;;;;5123370;27;19923;-51
2022/07/04 08:08:14;;;;;;;;;;;20.00;52.40;;;;;;5127530;27;19927;-57
2022/07/04 08:10:39;;;;;;;;;;;20.20;54.80;;;;;;5126117;27;19923;-46
2022/07/04 08:13:05;;;;;;;;;;;21.00;57.10;;;;;;5124841;27;19927;-46
2022/07/04 08:15:31;;;;;;;;;;;21.70;56.30;;;;;;5130022;27;20006;-47
2022/07/04 08:17:57;;;;;;;;;;;21.00;55.00;;;;;;5124657;27;20302;-46
2022/07/04 08:20:23;;;;;;;;;;;20.30;54.40;;;;;;5124702;27;20035;-45
2022/07/04 08:22:48;;;;;;;;;;;20.20;53.10;;;;;;5129738;27;19965;-46
2022/07/04 08:25:14;;;;;;;;;;;20.00;52.40;;;;;;5122373;27;19930;-49
2022/07/04 08:27:40;;;;;;;;;;;19.80;52.50;;;;;;5125229;27;19923;-54
2022/07/04 08:30:07;;;;;;;;;;;20.50;57.40;;;;;;5127953;27;20375;-48
2022/07/04 08:32:33;;;;;;;;;;;21.30;57.40;;;;;;5124204;27;19934;-46
2022/07/04 08:34:59;;;;;;;;;;;21.80;55.80;;;;;;5130102;27;19927;-45
2022/07/04 08:37:25;;;;;;;;;;;20.70;55.30;;;;;;5124529;27;19924;-47
2022/07/04 08:39:50;;;;;;;;;;;20.50;54.00;;;;;;5124181;27;19930;-44
2022/07/04 08:42:17;;;;;;;;;;;20.20;53.20;;;;;;5128891;27;19934;-50
2022/07/04 08:44:45;;;;;;;;;;;20.00;52.80;;;;;;5122797;27;20475;-49
2022/07/04 08:47:10;;;;;;;;;;;19.90;53.90;;;;;;5123734;27;19929;-48
2022/07/04 08:49:38;;;;;;;;;;;20.80;57.20;;;;;;5129033;27;21153;-48
2022/07/04 08:52:04;;;;;;;;;;;21.60;56.80;;;;;;5105881;27;19923;-48
2022/07/04 08:59:59;;;;;;;;;;;20.30;53.20;;;;;;5108027;27;19929;-48
2022/07/04 09:02:26;;;;;;;;;;;19.90;53.00;;;;;;5125656;27;19928;-55
2022/07/04 09:04:52;;;;;;;;;;;19.80;52.50;;;;;;5106995;27;19931;-46
2022/07/04 09:07:18;;;;;;;;;;;20.10;55.70;;;;;;5104866;27;19923;-47
2022/07/04 09:09:44;;;;;;;;;;;20.90;58.00;;;;;;5129050;27;20328;-45
2022/07/04 09:12:10;;;;;;;;;;;21.70;56.80;;;;;;5123156;27;19924;-45
2022/07/04 09:14:36;;;;;;;;;;;21.20;55.40;;;;;;5123980;27;19954;-49
2022/07/04 09:17:02;;;;;;;;;;;20.50;54.50;;;;;;5129154;27;20266;-46
2022/07/04 09:19:27;;;;;;;;;;;20.20;53.60;;;;;;5122305;27;19926;-46
2022/07/04 09:21:53;;;;;;;;;;;20.00;53.00;;;;;;5123647;27;19943;-55
2022/07/04 09:24:39;;;;;;;;;;;19.80;52.60;;;;;;5108763;27;19927;-45
2022/07/04 09:27:05;;;;;;;;;;;19.90;52.70;;;;;;5123669;27;20018;-47
2022/07/04 09:29:31;;;;;;;;;;;20.70;57.30;;;;;;5127650;27;19924;-52
2022/07/04 09:31:57;;;;;;;;;;;21.50;57.30;;;;;;5106934;27;19928;-47
2022/07/04 09:34:23;;;;;;;;;;;21.50;55.50;;;;;;5123274;27;20271;-45
2022/07/04 09:36:51;;;;;;;;;;;20.60;55.10;;;;;;5128562;27;19927;-52
2022/07/04 09:39:18;;;;;;;;;;;20.20;54.10;;;;;;5120987;27;20352;-47
2022/07/04 09:41:50;;;;;;;;;;;20.10;53.00;;;;;;5122735;27;19924;-48
2022/07/04 09:44:16;;;;;;;;;;;19.80;52.90;;;;;;5128514;27;19928;-47
2022/07/04 09:46:41;;;;;;;;;;;20.30;57.10;;;;;;5104617;27;19970;-47
2022/07/04 09:49:07;;;;;;;;;;;21.20;57.90;;;;;;5122625;27;19974;-45
2022/07/04 09:51:43;;;;;;;;;;;21.80;56.60;;;;;;5108484;27;19949;-49
2022/07/04 09:54:13;;;;;;;;;;;21.10;55.30;;;;;;5122762;27;20290;-48
2022/07/04 09:56:42;;;;;;;;;;;20.50;54.60;;;;;;5125058;27;19974;-55
2022/07/04 09:59:08;;;;;;;;;;;20.30;53.60;;;;;;5125271;27;19979;-46
2022/07/04 10:01:34;;;;;;;;;;;20.10;53.10;;;;;;5122514;27;20577;-49
2022/07/04 10:03:59;;;;;;;;;;;20.10;52.00;;;;;;5127884;27;20378;-51
2022/07/04 10:06:25;;;;;;;;;;;20.70;57.10;;;;;;5122368;27;20267;-46
2022/07/04 10:08:51;;;;;;;;;;;21.40;57.50;;;;;;5122552;27;19931;-46
2022/07/04 10:11:18;;;;;;;;;;;21.20;55.80;;;;;;5109496;27;20018;-46
2022/07/04 10:13:44;;;;;;;;;;;20.50;54.70;;;;;;5120772;27;20387;-48
2022/07/04 10:16:10;;;;;;;;;;;20.10;53.90;;;;;;5120318;27;19928;-49
2022/07/04 10:18:36;;;;;;;;;;;20.00;53.00;;;;;;5127323;27;20549;-46
2022/07/04 10:21:02;;;;;;;;;;;19.90;52.40;;;;;;5103538;27;19971;-50
2022/07/04 10:23:31;;;;;;;;;;;20.30;56.00;;;;;;5127616;27;20024;-51
2022/07/04 10:25:57;;;;;;;;;;;20.90;58.00;;;;;;5121927;27;19930;-46
2022/07/04 10:28:24;;;;;;;;;;;21.80;56.30;;;;;;5122443;27;20022;-47
2022/07/04 10:30:51;;;;;;;;;;;21.10;54.90;;;;;;5127540;27;19927;-49
2022/07/04 10:33:20;;;;;;;;;;;20.40;54.40;;;;;;5120521;27;20011;-45
2022/07/04 10:35:56;;;;;;;;;;;20.30;53.30;;;;;;5199694;27;19918;-52
2022/07/04 10:38:22;;;;;;;;;;;20.00;52.70;;;;;;5205672;27;19952;-49
2022/07/04 10:40:49;;;;;;;;;;;20.00;52.30;;;;;;5200460;27;20396;-48
2022/07/04 10:43:25;;;;;;;;;;;20.10;51.40;;;;;;5200423;27;19923;-48
2022/07/04 10:45:51;;;;;;;;;;;20.00;51.50;;;;;;5205974;27;19934;-52
2022/07/04 10:48:23;;;;;;;;;;;19.80;52.90;;;;;;5200340;27;20009;-46
2022/07/04 10:51:02;;;;;;;;;;;20.50;56.90;;;;;;5203603;27;20251;-54
2022/07/04 10:53:28;;;;;;;;;;;21.30;57.10;;;;;;5204517;27;20252;-50
2022/07/04 10:55:55;;;;;;;;;;;21.90;55.40;;;;;;5199906;27;19922;-45
2022/07/04 10:58:37;;;;;;;;;;;21.10;54.70;;;;;;5186900;27;20022;-45
2022/07/04 11:01:09;;;;;;;;;;;20.40;54.00;;;;;;5203764;27;19922;-45
2022/07/04 11:03:43;;;;;;;;;;;20.30;52.80;;;;;;5200239;27;19923;-48
2022/07/04 11:06:29;;;;;;;;;;;20.20;52.60;;;;;;5205740;27;19926;-47
2022/07/04 11:09:14;;;;;;;;;;;19.90;52.50;;;;;;5205097;27;19931;-49
2022/07/04 11:11:58;;;;;;;;;;;20.10;51.30;;;;;;5198465;27;19926;-50
2022/07/04 11:14:36;;;;;;;;;;;19.90;53.10;;;;;;5199547;27;20196;-50
2022/07/04 11:17:03;;;;;;;;;;;20.70;57.50;;;;;;5205434;27;19926;-49
2022/07/04 11:19:29;;;;;;;;;;;21.50;57.10;;;;;;5181188;27;20339;-46
2022/07/04 11:21:55;;;;;;;;;;;21.70;55.40;;;;;;5197643;27;19975;-53
2022/07/04 11:24:21;;;;;;;;;;;20.90;54.70;;;;;;5164550;27;20385;-45
2022/07/04 11:26:46;;;;;;;;;;;20.40;53.80;;;;;;5178642;27;19922;-46
2022/07/04 11:29:13;;;;;;;;;;;20.10;53.20;;;;;;5182035;27;20270;-46
2022/07/04 11:31:42;;;;;;;;;;;20.10;52.40;;;;;;5177931;27;20373;-47
2022/07/04 11:34:08;;;;;;;;;;;20.00;54.10;;;;;;5178250;27;19923;-47
2022/07/04 11:36:34;;;;;;;;;;;20.80;57.50;;;;;;5183794;27;19927;-45
2022/07/04 11:39:00;;;;;;;;;;;21.60;56.70;;;;;;5178492;27;19954;-46
2022/07/04 11:47:03;;;;;;;;;;;20.40;53.40;;;;;;5164227;27;19954;-49
2022/07/04 11:49:29;;;;;;;;;;;20.30;52.60;;;;;;5163279;27;19922;-47
2022/07/04 11:51:55;;;;;;;;;;;19.90;52.50;;;;;;5150187;27;19929;-45
2022/07/04 11:54:21;;;;;;;;;;;20.10;54.40;;;;;;5164134;27;19927;-46
2022/07/04 11:56:47;;;;;;;;;;;20.90;57.60;;;;;;5164213;27;20005;-49
2022/07/04 11:59:13;;;;;;;;;;;21.70;56.70;;;;;;5169784;27;19933;-47
2022/07/04 12:01:40;;;;;;;;;;;21.40;55.40;;;;;;5164081;27;19923;-46
2022/07/04 12:04:12;;;;;;;;;;;20.80;54.70;;;;;;5168994;27;20297;-48
2022/07/04 12:06:38;;;;;;;;;;;20.50;53.70;;;;;;5162143;27;19927;-51
2022/07/04 12:09:04;;;;;;;;;;;20.30;52.90;;;;;;5163679;27;19927;-49
2022/07/04 12:11:53;;;;;;;;;;;20.10;52.60;;;;;;5169129;27;19929;-49
2022/07/04 12:14:19;;;;;;;;;;;20.20;51.80;;;;;;5150193;27;19974;-46
2022/07/04 12:16:47;;;;;;;;;;;20.20;51.50;;;;;;5163763;27;19929;-46
2022/07/04 12:19:12;;;;;;;;;;;20.00;51.50;;;;;;5151251;27;19947;-47
2022/07/04 12:21:38;;;;;;;;;;;20.00;54.20;;;;;;5163486;27;19926;-48
2022/07/04 12:24:04;;;;;;;;;;;20.80;57.70;;;;;;5161951;27;19938;-49
2022/07/04 12:26:35;;;;;;;;;;;21.40;57.60;;;;;;5168146;27;19929;-46
2022/07/04 12:29:00;;;;;;;;;;;22.00;55.80;;;;;;5163299;27;19983;-46
2022/07/04 12:31:39;;;;;;;;;;;21.00;54.90;;;;;;5167872;27;19927;-55
2022/07/04 12:34:13;;;;;;;;;;;20.70;54.00;;;;;;5168811;27;19926;-44
2022/07/04 12:36:51;;;;;;;;;;;20.30;53.60;;;;;;5145078;27;19923;-47
2022/07/04 12:39:27;;;;;;;;;;;20.30;52.90;;;;;;5165285;27;20349;-56
2022/07/04 12:42:03;;;;;;;;;;;19.90;52.60;;;;;;5167765;27;19936;-47
2022/07/04 12:44:29;;;;;;;;;;;20.10;51.90;;;;;;5162242;27;20305;-46
2022/07/04 12:46:58;;;;;;;;;;;19.90;51.70;;;;;;5167652;27;19941;-54
2022/07/04 12:49:23;;;;;;;;;;;20.00;51.30;;;;;;5165723;27;19967;-47
2022/07/04 12:51:49;;;;;;;;;;;20.20;56.00;;;;;;5144467;27;20374;-48
2022/07/04 12:54:15;;;;;;;;;;;20.90;57.90;;;;;;5168566;27;19934;-44
2022/07/04 12:56:41;;;;;;;;;;;21.60;57.40;;;;;;5144186;27;19930;-45
2022/07/04 12:59:11;;;;;;;;;;;21.60;55.60;;;;;;5162072;27;19947;-47
2022/07/04 13:01:37;;;;;;;;;;;20.80;54.70;;;;;;5166579;27;20021;-48
2022/07/04 13:04:03;;;;;;;;;;;20.40;53.90;;;;;;5162547;27;20004;-47
2022/07/04 13:06:29;;;;;;;;;;;20.40;53.00;;;;;;5162611;27;19923;-47
2022/07/04 13:08:54;;;;;;;;;;;20.20;52.60;;;;;;5168385;27;20450;-45
2022/07/04 13:14:05;;;;;;;;;;;20.20;51.70;;;;;;5165932;27;19923;-53
2022/07/04 13:16:30;;;;;;;;;;;20.00;51.50;;;;;;5165842;27;20402;-50
2022/07/04 13:18:56;;;;;;;;;;;20.20;55.30;;;;;;5161222;27;19926;-51
2022/07/04 13:21:22;;;;;;;;;;;20.90;57.70;;;;;;5167090;27;19927;-49
2022/07/04 13:23:48;;;;;;;;;;;21.70;57.10;;;;;;5162462;27;19922;-45
2022/07/04 13:26:15;;;;;;;;;;;21.60;55.50;;;;;;5162478;27;19922;-45
2022/07/04 13:28:41;;;;;;;;;;;20.90;54.60;;;;;;5149771;27;19923;-46
2022/07/04 13:31:07;;;;;;;;;;;20.50;53.70;;;;;;5162867;27;19975;-45
2022/07/04 13:33:33;;;;;;;;;;;20.30;53.00;;;;;;5162675;27;21370;-51
2022/07/04 13:35:58;;;;;;;;;;;20.10;52.60;;;;;;5167497;27;19923;-48
2022/07/04 13:38:24;;;;;;;;;;;20.00;52.10;;;;;;5160621;27;20392;-47
2022/07/04 13:40:50;;;;;;;;;;;20.10;51.60;;;;;;5167581;27;20017;-46
2022/07/04 13:43:16;;;;;;;;;;;20.00;51.70;;;;;;5162399;27;20254;-47
2022/07/04 13:45:44;;;;;;;;;;;20.00;51.60;;;;;;5162368;27;19975;-47
2022/07/04 13:48:10;;;;;;;;;;;20.50;56.90;;;;;;5167740;27;20022;-48
2022/07/04 13:50:37;;;;;;;;;;;21.30;57.40;;;;;;5162486;27;19929;-47
2022/07/04 13:53:06;;;;;;;;;;;21.90;56.30;;;;;;5162264;27;20009;-44
2022/07/04 13:55:34;;;;;;;;;;;21.00;55.40;;;;;;5165873;27;19967;-46
2022/07/04 13:58:06;;;;;;;;;;;20.50;54.40;;;;;;5161192;27;19933;-47
2022/07/04 14:00:32;;;;;;;;;;;20.30;53.30;;;;;;5165046;27;20449;-53
2022/07/04 14:02:57;;;;;;;;;;;20.10;53.00;;;;;;5164826;27;19933;-46
2022/07/04 14:05:26;;;;;;;;;;;20.10;52.50;;;;;;5162151;27;19923;-46
2022/07/04 14:07:53;;;;;;;;;;;20.20;52.00;;;;;;5167507;27;19936;-44
2022/07/04 14:10:18;;;;;;;;;;;20.10;51.70;;;;;;5161453;27;19922;-45
2022/07/04 14:12:44;;;;;;;;;;;20.10;51.40;;;;;;5161711;27;19923;-45
2022/07/04 14:15:10;;;;;;;;;;;20.30;56.20;;;;;;5165284;27;19923;-48
2022/07/04 14:17:36;;;;;;;;;;;21.10;57.90;;;;;;5161548;27;20472;-47
2022/07/04 14:20:07;;;;;;;;;;;21.80;56.90;;;;;;5161793;27;20023;-47
2022/07/04 14:22:33;;;;;;;;;;;21.40;55.30;;;;;;5167312;27;20047;-47
2022/07/04 14:24:58;;;;;;;;;;;20.80;54.60;;;;;;5161908;27;19927;-47
2022/07/04 14:27:24;;;;;;;;;;;20.50;54.00;;;;;;5167586;27;20278;-46
2022/07/04 14:29:50;;;;;;;;;;;20.20;53.50;;;;;;5162190;27;19937;-44
2022/07/04 14:32:16;;;;;;;;;;;20.20;52.60;;;;;;5160322;27;19966;-45
2022/07/04 14:34:41;;;;;;;;;;;20.10;52.30;;;;;;5166114;27;19927;-49
2022/07/04 14:37:07;;;;;;;;;;;20.00;51.80;;;;;;5161364;27;19933;-45
2022/07/04 14:39:33;;;;;;;;;;;20.00;51.40;;;;;;5161867;27;20599;-49
2022/07/04 14:41:59;;;;;;;;;;;19.80;54.10;;;;;;5166956;27;19950;-48